Time;durP1;ratioP1;P1;durP2;ratioP2;P2;SDS_P1;SDS_P2;PMS_P1;PMS_P2;Temp;Humidity;BMP_temperature;BMP_pressure;BME280_temperature;BME280_humidity;BME280_pressure;Samples;Min_cycle;Max_cycle;Signal;HPM_P1;HPM_P2
2023/12/11 00:02:25;;;;;;;61.20;24.00;;;;;;;-141.97;83.25;46256.53;5033120;28;20192;-86
2023/12/11 00:04:50;;;;;;;54.53;22.07;;;;;;;-141.97;82.67;46581.25;5031566;28;20216;-86
2023/12/11 00:07:16;;;;;;;59.07;21.20;;;;;;;-141.97;83.05;46663.88;5031484;28;20409;-85
2023/12/11 00:09:41;;;;;;;54.53;21.03;;;;;;;-141.97;83.25;46187.38;5032853;28;20182;-88
2023/12/11 00:12:07;;;;;;;58.37;23.37;;;;;;;-141.97;84.47;46308.41;5031667;28;20173;-86
2023/12/11 00:14:32;;;;;;;64.03;22.23;;;;;;;-141.97;85.16;46362.22;5032980;28;20208;-86
2023/12/11 00:16:58;;;;;;;56.17;22.20;;;;;;;-141.97;86.08;46221.94;5031564;28;20166;-85
2023/12/11 00:19:23;;;;;;;61.47;22.90;;;;;;;-141.97;86.11;46485.19;5031593;28;20495;-85
2023/12/11 00:21:49;;;;;;;65.63;22.47;;;;;;;-141.97;86.04;46262.28;5032943;28;20558;-86
2023/12/11 00:24:14;;;;;;;56.73;22.37;;;;;;;-141.97;87.83;46262.28;5039364;28;20285;-84
2023/12/11 00:26:40;;;;;;;59.97;21.70;;;;;;;-141.97;87.47;46677.31;5046069;28;20169;-85
2023/12/11 00:29:05;;;;;;;52.07;19.27;;;;;;;-141.97;87.73;46097.06;5031846;28;20613;-86
2023/12/11 00:31:31;;;;;;;54.90;19.70;;;;;;;-141.97;87.77;46300.72;5033120;28;20650;-85
2023/12/11 00:33:56;;;;;;;50.83;20.10;;;;;;;-141.97;89.28;46708.06;5035759;28;20542;-84
2023/12/11 00:36:21;;;;;;;55.17;20.20;;;;;;;-141.97;89.79;46623.53;5040605;28;20204;-87
2023/12/11 00:38:48;;;;;;;74.23;26.03;;;;;;;-141.97;89.54;46454.44;5062776;22;20234;-86
2023/12/11 00:41:15;;;;;;;60.97;21.93;;;;;;;-141.97;90.04;46179.69;5012412;28;20176;-84
2023/12/11 00:43:41;;;;;;;66.10;25.40;;;;;;;-141.97;89.97;46158.53;5001792;28;20978;-86
2023/12/11 00:46:06;;;;;;;58.83;21.37;;;;;;;-141.97;91.08;46304.56;5004148;28;20454;-85
2023/12/11 00:48:32;;;;;;;55.13;20.53;;;;;;;-141.97;92.10;46556.28;4999296;28;20581;-84
2023/12/11 00:50:57;;;;;;;69.37;23.43;;;;;;;-141.97;92.78;46308.41;4994207;28;20648;-84
2023/12/11 00:53:22;;;;;;;59.57;21.80;;;;;;;-141.97;93.34;46095.16;4992728;28;20164;-84
2023/12/11 00:55:48;;;;;;;62.30;22.50;;;;;;;-141.97;94.77;46168.16;4994337;28;20176;-85
2023/12/11 00:58:13;;;;;;;81.67;27.43;;;;;;;-141.97;96.98;46293.03;4993353;28;20229;-84
2023/12/11 01:00:39;;;;;;;92.77;29.93;;;;;;;-141.97;99.67;46594.69;4993235;28;20179;-85
2023/12/11 01:03:04;;;;;;;111.83;30.93;;;;;;;-141.97;100.00;46148.94;4992500;28;20178;-85
2023/12/11 01:05:30;;;;;;;69.57;25.07;;;;;;;-141.97;100.00;46127.81;4991552;28;20176;-85
2023/12/11 01:07:56;;;;;;;74.90;24.33;;;;;;;-141.97;100.00;46287.28;4993522;28;20163;-85
2023/12/11 01:10:21;;;;;;;68.73;24.00;;;;;;;-141.97;100.00;46266.13;4993548;28;20246;-85
2023/12/11 01:12:47;;;;;;;66.83;23.23;;;;;;;-141.97;100.00;46592.78;4991523;28;20198;-83
2023/12/11 01:15:12;;;;;;;67.13;24.77;;;;;;;-141.97;100.00;46100.91;4992633;28;20171;-83
2023/12/11 01:17:38;;;;;;;61.83;24.87;;;;;;;-141.97;100.00;46300.72;4992153;28;20360;-84
2023/12/11 01:20:04;;;;;;;64.27;25.20;;;;;;;-141.97;100.00;46135.50;4992207;28;20632;-83
2023/12/11 01:22:29;;;;;;;76.63;25.63;;;;;;;-141.97;100.00;46273.81;4992395;28;20181;-84
2023/12/11 01:24:54;;;;;;;72.20;27.33;;;;;;;-141.97;100.00;46177.75;4992334;28;20301;-83
2023/12/11 01:27:20;;;;;;;64.17;25.70;;;;;;;-141.97;100.00;46308.41;4992279;28;20172;-84
2023/12/11 01:29:45;;;;;;;70.80;25.63;;;;;;;-141.97;100.00;46598.53;4992536;28;20585;-83
2023/12/11 01:32:11;;;;;;;73.17;26.20;;;;;;;-141.97;100.00;46419.84;4991425;28;20695;-84
2023/12/11 01:34:36;;;;;;;71.37;25.53;;;;;;;-141.97;100.00;46293.03;4992274;28;20172;-84
2023/12/11 01:37:02;;;;;;;68.33;24.07;;;;;;;-141.97;100.00;46066.31;4992450;28;20175;-84
2023/12/11 01:39:27;;;;;;;66.83;24.50;;;;;;;-141.97;100.00;46293.03;4992963;28;20242;-84
2023/12/11 01:41:53;;;;;;;69.73;23.53;;;;;;;-141.97;100.00;46358.38;5004133;28;20164;-84
2023/12/11 01:44:18;;;;;;;76.07;26.43;;;;;;;-141.97;100.00;46592.78;5010044;28;20210;-83
2023/12/11 01:46:44;;;;;;;72.00;23.90;;;;;;;-141.97;100.00;46154.69;5008433;28;20279;-84
2023/12/11 01:49:10;;;;;;;62.93;23.77;;;;;;;-141.97;100.00;46306.50;4992629;28;20210;-83
2023/12/11 01:51:37;;;;;;;71.30;25.10;;;;;;;-141.97;100.00;46269.97;4992126;28;20655;-83
2023/12/11 01:54:04;;;;;;;70.10;25.30;;;;;;;-141.97;100.00;46702.31;4992201;28;20778;-84
2023/12/11 01:56:30;;;;;;;66.80;24.17;;;;;;;-141.97;100.00;46333.38;4991942;28;20454;-84
2023/12/11 01:58:56;;;;;;;72.40;24.10;;;;;;;-141.97;100.00;46629.28;4992663;28;20410;-83
2023/12/11 02:01:25;;;;;;;66.73;23.70;;;;;;;-141.97;100.00;46669.63;4992346;28;20673;-85
2023/12/11 02:03:51;;;;;;;76.90;25.63;;;;;;;-141.97;100.00;46273.81;4992715;28;20504;-85
2023/12/11 02:06:17;;;;;;;87.43;28.53;;;;;;;-141.97;100.00;46750.34;4992224;28;20430;-86
2023/12/11 02:08:45;;;;;;;85.03;28.43;;;;;;;-141.97;100.00;46590.84;4992035;28;20411;-86
2023/12/11 02:11:11;;;;;;;91.37;30.43;;;;;;;-141.97;100.00;46231.56;4990671;28;20186;-85
2023/12/11 02:13:39;;;;;;;86.30;29.27;;;;;;;-141.97;100.00;46710.00;4990868;28;20480;-84
2023/12/11 02:16:05;;;;;;;83.17;29.00;;;;;;;-141.97;100.00;46627.38;4993263;28;20409;-85
2023/12/11 02:18:31;;;;;;;79.10;28.50;;;;;;;-141.97;100.00;46631.22;4996115;28;20497;-85
2023/12/11 02:20:56;;;;;;;98.50;34.97;;;;;;;-141.97;100.00;46289.19;4996052;28;20522;-86
2023/12/11 02:23:28;;;;;;;79.70;27.73;;;;;;;-141.97;100.00;46327.63;4995829;28;20235;-86
2023/12/11 02:26:16;;;;;;;80.13;28.37;;;;;;;-141.97;100.00;46339.16;4996026;28;20259;-86
2023/12/11 02:28:42;;;;;;;86.70;30.23;;;;;;;-141.97;100.00;46327.63;5005447;28;20407;-87
2023/12/11 02:31:08;;;;;;;82.83;30.73;;;;;;;-141.97;100.00;46341.06;4994952;28;20419;-83
2023/12/11 02:33:33;;;;;;;79.77;29.43;;;;;;;-141.97;100.00;46510.16;4995654;28;20172;-83
2023/12/11 02:35:59;;;;;;;85.70;28.97;;;;;;;-141.97;100.00;46162.38;4995255;28;20230;-84
2023/12/11 02:38:24;;;;;;;83.53;28.90;;;;;;;-141.97;100.00;46523.59;4994183;28;20535;-83
2023/12/11 02:40:50;;;;;;;84.37;30.23;;;;;;;-141.97;100.00;46638.91;4995662;28;20238;-84
2023/12/11 02:43:15;;;;;;;81.53;29.70;;;;;;;-141.97;100.00;46617.75;5011403;28;20207;-84
2023/12/11 02:45:44;;;;;;;89.67;29.27;;;;;;;-141.97;100.00;46204.66;5010861;28;20205;-84
2023/12/11 02:48:10;;;;;;;76.70;27.63;;;;;;;-141.97;100.00;46323.78;4997249;28;20172;-84
2023/12/11 02:50:36;;;;;;;76.37;27.60;;;;;;;-141.97;100.00;46492.88;4995379;28;20477;-83
2023/12/11 02:53:02;;;;;;;82.20;28.47;;;;;;;-141.97;100.00;46331.47;4997019;28;20418;-84
2023/12/11 02:55:28;;;;;;;73.47;27.60;;;;;;;-141.97;100.00;46563.97;4995551;28;20178;-85
2023/12/11 02:58:00;;;;;;;79.73;27.63;;;;;;;-141.97;100.00;46181.59;5010558;28;20422;-84
2023/12/11 03:00:26;;;;;;;90.47;33.40;;;;;;;-141.97;100.00;46318.00;4995433;28;20214;-85
2023/12/11 03:02:51;;;;;;;92.10;30.20;;;;;;;-141.97;100.00;46293.03;4993843;28;20434;-84
2023/12/11 03:05:17;;;;;;;88.10;30.87;;;;;;;-141.97;100.00;46642.75;4993762;28;20529;-84
2023/12/11 03:07:43;;;;;;;87.30;31.63;;;;;;;-141.97;100.00;46237.31;4994919;28;20257;-84
2023/12/11 03:10:08;;;;;;;96.03;33.93;;;;;;;-141.97;100.00;46085.53;4993408;28;20266;-84
2023/12/11 03:12:34;;;;;;;92.33;31.00;;;;;;;-141.97;100.00;46104.75;4994816;28;20167;-85
2023/12/11 03:14:59;;;;;;;82.23;28.90;;;;;;;-141.97;100.00;46323.78;4994547;28;20172;-86
2023/12/11 03:17:25;;;;;;;83.40;29.60;;;;;;;-141.97;100.00;46358.38;4995185;28;20176;-85
2023/12/11 03:19:52;;;;;;;91.00;28.20;;;;;;;-141.97;100.00;46335.31;4998508;28;20179;-83
2023/12/11 03:22:17;;;;;;;106.83;34.47;;;;;;;-141.97;100.00;46646.59;4995901;28;20198;-84
2023/12/11 03:24:43;;;;;;;115.97;37.67;;;;;;;-141.97;100.00;46158.53;4993853;28;20490;-84
2023/12/11 03:27:09;;;;;;;117.13;36.87;;;;;;;-141.97;100.00;46581.25;4994284;28;20643;-86
2023/12/11 03:29:34;;;;;;;129.17;41.67;;;;;;;-141.97;100.00;46771.50;5011815;28;20190;-85
2023/12/11 03:31:59;;;;;;;108.97;37.67;;;;;;;-141.97;100.00;46266.13;5002655;28;20566;-85
2023/12/11 03:34:25;;;;;;;110.10;37.50;;;;;;;-141.97;100.00;46366.06;4994818;28;20172;-84
2023/12/11 03:36:50;;;;;;;150.27;48.67;;;;;;;-141.97;100.00;46152.78;4993652;28;20271;-84
2023/12/11 03:39:16;;;;;;;115.17;38.03;;;;;;;-141.97;100.00;46706.16;4992708;28;20227;-85
2023/12/11 03:41:41;;;;;;;250.17;97.33;;;;;;;-141.97;100.00;46202.72;4993064;28;20172;-84
2023/12/11 03:44:07;;;;;;;223.13;84.07;;;;;;;-141.97;100.00;46323.78;4994346;28;20206;-84
2023/12/11 03:46:32;;;;;;;206.03;67.90;;;;;;;-141.97;100.00;46271.91;4992747;28;20195;-85
2023/12/11 03:48:58;;;;;;;209.83;71.30;;;;;;;-141.97;100.00;46189.28;4997696;28;20179;-84
2023/12/11 03:51:23;;;;;;;157.93;53.90;;;;;;;-141.97;100.00;46546.66;4997293;28;20182;-85
2023/12/11 03:53:48;;;;;;;118.83;38.40;;;;;;;-141.97;100.00;46154.69;4994386;28;20652;-84
2023/12/11 03:56:14;;;;;;;110.37;36.03;;;;;;;-141.97;100.00;46118.19;4994239;28;20625;-84
2023/12/11 03:58:39;;;;;;;95.43;32.33;;;;;;;-141.97;100.00;46369.88;4992467;28;20289;-84
2023/12/11 04:01:05;;;;;;;100.37;32.70;;;;;;;-141.97;100.00;46748.44;4995216;28;20179;-83
2023/12/11 04:03:31;;;;;;;123.80;41.00;;;;;;;-141.97;100.00;46177.75;4993182;28;20211;-84
2023/12/11 04:05:57;;;;;;;209.30;60.90;;;;;;;-141.97;100.00;46152.78;4993710;28;20564;-85
2023/12/11 04:08:22;;;;;;;149.47;48.33;;;;;;;-141.97;100.00;46264.22;4996626;28;20415;-84
2023/12/11 04:10:48;;;;;;;164.80;53.27;;;;;;;-141.97;100.00;46216.19;4994806;28;20624;-83
2023/12/11 04:13:14;;;;;;;167.53;53.27;;;;;;;-141.97;100.00;46356.44;4993814;28;20172;-84
2023/12/11 04:15:39;;;;;;;129.57;45.70;;;;;;;-141.97;100.00;46314.16;4992341;28;20195;-83
2023/12/11 04:18:05;;;;;;;141.83;46.87;;;;;;;-141.97;100.00;46339.16;4993896;28;20914;-83
2023/12/11 04:20:30;;;;;;;143.77;47.40;;;;;;;-141.97;100.00;46638.91;4993182;28;20647;-82
2023/12/11 04:22:56;;;;;;;130.43;43.87;;;;;;;-141.97;100.00;46248.84;4993877;28;20627;-83
2023/12/11 04:25:21;;;;;;;115.10;39.53;;;;;;;-141.97;100.00;46354.53;4994106;28;20676;-83
2023/12/11 04:27:47;;;;;;;108.73;36.60;;;;;;;-141.97;100.00;46358.38;4992736;28;20674;-83
2023/12/11 04:30:13;;;;;;;115.97;39.13;;;;;;;-141.97;100.00;46746.50;4993521;28;20254;-84
2023/12/11 04:32:38;;;;;;;183.87;54.30;;;;;;;-141.97;100.00;46350.69;4993031;28;20167;-83
2023/12/11 04:35:04;;;;;;;193.90;58.37;;;;;;;-141.97;100.00;46331.47;4993641;28;20218;-82
2023/12/11 04:37:30;;;;;;;169.97;56.57;;;;;;;-141.97;100.00;46358.38;4993463;28;20171;-84
2023/12/11 04:39:55;;;;;;;165.20;56.07;;;;;;;-141.97;100.00;46408.31;4993408;28;20859;-84
2023/12/11 04:42:21;;;;;;;180.53;59.67;;;;;;;-141.97;100.00;46231.56;4993495;28;20183;-84
2023/12/11 04:44:46;;;;;;;165.97;55.67;;;;;;;-141.97;100.00;46325.69;4993258;28;20690;-83
2023/12/11 04:47:12;;;;;;;154.37;52.57;;;;;;;-141.97;100.00;46300.72;4992937;28;20562;-83
2023/12/11 04:49:37;;;;;;;166.30;55.20;;;;;;;-141.97;100.00;46312.25;4993605;28;20168;-84
2023/12/11 04:52:03;;;;;;;148.93;53.47;;;;;;;-141.97;100.00;46147.03;4993260;28;20175;-83
2023/12/11 04:54:28;;;;;;;162.90;57.67;;;;;;;-141.97;100.00;46339.16;4993161;28;20210;-83
2023/12/11 04:56:54;;;;;;;241.00;88.93;;;;;;;-141.97;100.00;46298.81;4992951;28;20171;-82
2023/12/11 04:59:19;;;;;;;241.33;91.57;;;;;;;-141.97;100.00;46362.22;4992839;28;20168;-84
2023/12/11 05:01:45;;;;;;;106.53;34.50;;;;;;;-141.97;100.00;46097.06;4993128;28;20167;-83
2023/12/11 05:04:10;;;;;;;94.43;33.83;;;;;;;-141.97;100.00;46358.38;4993732;28;20239;-84
2023/12/11 05:06:36;;;;;;;90.43;28.93;;;;;;;-141.97;100.00;46387.19;4992666;28;20233;-82
2023/12/11 05:09:01;;;;;;;83.23;28.73;;;;;;;-141.97;100.00;46362.22;4992185;28;20210;-83
2023/12/11 05:11:27;;;;;;;93.13;31.10;;;;;;;-141.97;100.00;46346.84;4991855;28;20182;-83
2023/12/11 05:13:52;;;;;;;88.60;30.93;;;;;;;-141.97;100.00;46385.25;4991800;28;20296;-84
2023/12/11 05:16:17;;;;;;;88.87;28.57;;;;;;;-141.97;100.00;46396.78;4992966;28;20171;-84
2023/12/11 05:18:43;;;;;;;94.67;32.57;;;;;;;-141.97;100.00;46318.00;4993799;28;20174;-84
2023/12/11 05:21:09;;;;;;;93.47;32.80;;;;;;;-141.97;100.00;46300.72;5009652;28;20163;-84
2023/12/11 05:23:35;;;;;;;97.23;31.47;;;;;;;-141.97;100.00;46335.31;5017242;28;20183;-84
2023/12/11 05:26:01;;;;;;;84.87;29.47;;;;;;;-141.97;100.00;46371.81;5009228;28;20442;-84
2023/12/11 05:28:27;;;;;;;89.87;30.33;;;;;;;-141.97;100.00;46337.22;5013271;28;20403;-83
2023/12/11 05:30:52;;;;;;;88.40;30.90;;;;;;;-141.97;100.00;46106.66;5004448;28;20168;-84
2023/12/11 05:33:18;;;;;;;91.67;31.73;;;;;;;-141.97;100.00;46362.22;5011298;28;20172;-87
2023/12/11 05:35:43;;;;;;;100.03;34.80;;;;;;;-141.97;100.00;46373.72;5002418;28;20187;-87
2023/12/11 05:38:09;;;;;;;110.53;37.53;;;;;;;-141.97;100.00;46104.75;5008674;28;20709;-85
2023/12/11 05:40:34;;;;;;;113.83;37.17;;;;;;;-141.97;100.00;46389.09;4997831;28;20223;-86
2023/12/11 05:42:59;;;;;;;119.13;36.40;;;;;;;-141.97;100.00;46761.88;4991384;28;20179;-87
2023/12/11 05:45:26;;;;;;;99.37;34.53;;;;;;;-141.97;100.00;46346.84;4992971;28;20576;-85
2023/12/11 05:47:51;;;;;;;100.83;33.80;;;;;;;-141.97;100.00;46744.59;4992416;28;20179;-85
2023/12/11 05:50:16;;;;;;;95.93;33.30;;;;;;;-141.97;100.00;46100.91;4992038;28;20422;-85
2023/12/11 05:52:42;;;;;;;95.67;34.43;;;;;;;-141.97;100.00;46350.69;4992328;28;20174;-85
2023/12/11 05:55:08;;;;;;;108.70;35.07;;;;;;;-141.97;100.00;46152.78;4991749;28;20178;-85
2023/12/11 05:57:33;;;;;;;103.70;38.57;;;;;;;-141.97;100.00;46231.56;4991765;28;20614;-84
2023/12/11 05:59:59;;;;;;;116.47;39.00;;;;;;;-141.97;100.00;46362.22;4991741;28;20189;-83
2023/12/11 06:02:25;;;;;;;113.83;39.33;;;;;;;-141.97;100.00;46612.00;4991793;28;20183;-84
2023/12/11 06:04:51;;;;;;;118.50;40.40;;;;;;;-141.97;100.00;46546.66;4990733;28;20285;-85
2023/12/11 06:07:17;;;;;;;126.07;42.90;;;;;;;-141.97;100.00;46710.00;4990290;28;20446;-85
2023/12/11 06:09:42;;;;;;;135.63;45.27;;;;;;;-141.97;100.00;46688.84;4990596;28;20423;-84
2023/12/11 06:12:09;;;;;;;116.17;39.03;;;;;;;-141.97;100.00;46362.22;4991517;28;20245;-84
2023/12/11 06:14:38;;;;;;;122.10;43.17;;;;;;;-141.97;100.00;46296.88;4991705;28;20167;-84
2023/12/11 06:17:03;;;;;;;171.67;57.93;;;;;;;-141.97;100.00;46181.59;4991625;28;20450;-85
2023/12/11 06:19:29;;;;;;;160.93;54.30;;;;;;;-141.97;100.00;46198.91;4991551;28;20935;-82
2023/12/11 06:21:54;;;;;;;144.83;48.57;;;;;;;-141.97;100.00;46654.28;4991671;28;20171;-83
2023/12/11 06:24:20;;;;;;;226.90;83.57;;;;;;;-141.97;100.00;46200.81;4992386;28;20199;-83
2023/12/11 06:26:45;;;;;;;252.97;90.20;;;;;;;-141.97;100.00;46279.59;5002631;28;20159;-85
2023/12/11 06:29:11;;;;;;;174.87;63.80;;;;;;;-141.97;100.00;46120.13;5014340;28;20183;-84
2023/12/11 06:31:36;;;;;;;163.40;55.90;;;;;;;-141.97;100.00;46625.44;4996633;28;20206;-84
2023/12/11 06:34:01;;;;;;;136.63;47.80;;;;;;;-141.97;100.00;46319.94;4991960;28;20182;-84
2023/12/11 06:36:28;;;;;;;166.03;58.73;;;;;;;-141.97;100.00;46273.81;4993919;28;20175;-86
2023/12/11 06:38:54;;;;;;;151.83;55.17;;;;;;;-141.97;100.00;46579.31;5026621;28;20756;-86
2023/12/11 06:41:20;;;;;;;186.40;63.13;;;;;;;-141.97;100.00;46147.03;5015625;28;20469;-84
2023/12/11 06:43:52;;;;;;;227.67;78.60;;;;;;;-141.97;100.00;46100.91;5010512;28;20461;-83
2023/12/11 06:46:18;;;;;;;234.90;81.40;;;;;;;-141.97;100.00;46204.66;5011444;28;20163;-84
2023/12/11 06:48:44;;;;;;;314.10;113.23;;;;;;;-141.97;100.00;46656.19;5020225;28;20501;-84
2023/12/11 06:51:10;;;;;;;314.63;116.43;;;;;;;-141.97;100.00;46339.16;5022810;28;20254;-84
2023/12/11 06:53:36;;;;;;;323.87;120.93;;;;;;;-141.97;100.00;46266.13;5016241;28;20426;-82
2023/12/11 06:56:03;;;;;;;312.30;120.67;;;;;;;-141.97;100.00;46723.44;5010262;28;20424;-83
2023/12/11 06:58:29;;;;;;;269.30;105.50;;;;;;;-141.97;100.00;46183.53;5013390;28;20438;-84
2023/12/11 07:00:54;;;;;;;252.40;95.57;;;;;;;-141.97;100.00;46072.09;5012636;28;20900;-84
2023/12/11 07:03:20;;;;;;;291.40;134.97;;;;;;;-141.97;100.00;46200.81;5023421;28;20210;-87
2023/12/11 07:05:46;;;;;;;201.20;83.47;;;;;;;-141.97;100.00;46172.00;5035756;28;20173;-84
2023/12/11 07:08:12;;;;;;;317.57;116.93;;;;;;;-141.97;100.00;46200.81;5031950;28;20171;-84
2023/12/11 07:10:39;;;;;;;256.53;90.97;;;;;;;-141.97;100.00;46577.41;5019167;28;20205;-84
2023/12/11 07:13:04;;;;;;;251.30;85.67;;;;;;;-141.97;100.00;46381.41;5014998;28;20166;-84
2023/12/11 07:15:30;;;;;;;199.63;77.50;;;;;;;-141.97;100.00;46187.38;5014993;28;20823;-84
2023/12/11 07:17:56;;;;;;;201.07;77.57;;;;;;;-141.97;100.00;46070.16;5015235;28;20171;-84
2023/12/11 07:20:22;;;;;;;152.67;60.43;;;;;;;-141.97;100.00;46104.75;5013649;28;20186;-84
2023/12/11 07:22:49;;;;;;;150.83;62.90;;;;;;;-141.97;100.00;46404.47;5015159;28;20418;-86
2023/12/11 07:25:14;;;;;;;179.43;70.73;;;;;;;-141.97;100.00;46127.81;5015008;28;20465;-86
2023/12/11 07:27:42;;;;;;;177.03;69.03;;;;;;;-141.97;100.00;46254.59;5014861;28;20977;-85
2023/12/11 07:30:08;;;;;;;210.33;75.70;;;;;;;-141.97;100.00;46419.84;5013571;28;20694;-84
2023/12/11 07:32:34;;;;;;;195.20;78.93;;;;;;;-141.97;100.00;45941.44;5014703;28;20414;-85
2023/12/11 07:35:00;;;;;;;206.23;84.07;;;;;;;-141.97;100.00;46708.06;5014491;28;20504;-85
2023/12/11 07:37:25;;;;;;;210.23;85.47;;;;;;;-141.97;100.00;46734.97;5015948;28;20167;-85
2023/12/11 07:39:51;;;;;;;265.70;100.20;;;;;;;-141.97;100.00;46054.81;5014854;28;20847;-85
2023/12/11 07:42:16;;;;;;;198.23;80.17;;;;;;;-141.97;100.00;46173.91;5015651;28;20178;-86
2023/12/11 07:44:42;;;;;;;203.00;78.67;;;;;;;-141.97;100.00;46116.28;5015096;28;20206;-85
2023/12/11 07:47:08;;;;;;;217.93;85.33;;;;;;;-141.97;100.00;46642.75;5018285;28;20171;-85
2023/12/11 07:49:33;;;;;;;203.73;83.33;;;;;;;-141.97;100.00;46135.50;5014302;28;20224;-84
2023/12/11 07:52:01;;;;;;;189.23;76.00;;;;;;;-141.97;100.00;46266.13;5014992;28;20166;-84
2023/12/11 07:54:27;;;;;;;183.30;71.40;;;;;;;-141.97;100.00;46546.66;5014076;28;20221;-86
2023/12/11 07:56:52;;;;;;;157.47;62.20;;;;;;;-141.97;100.00;46462.13;5012784;28;20409;-85
2023/12/11 07:59:18;;;;;;;145.97;57.73;;;;;;;-141.97;100.00;46515.91;5013918;28;20642;-85
2023/12/11 08:01:43;;;;;;;140.43;56.17;;;;;;;-141.97;100.00;46500.56;5013109;28;20596;-83
2023/12/11 08:04:09;;;;;;;173.27;67.43;;;;;;;-141.97;100.00;46064.41;5012043;28;20210;-85
2023/12/11 08:06:42;;;;;;;174.67;67.03;;;;;;;-141.97;100.00;46145.09;5016829;28;20175;-85
2023/12/11 08:09:09;;;;;;;163.87;60.10;;;;;;;-141.97;100.00;45958.75;5014048;28;20262;-84
2023/12/11 08:11:34;;;;;;;144.07;53.50;;;;;;;-141.97;100.00;46285.34;5013795;28;20421;-85
2023/12/11 08:14:00;;;;;;;116.90;45.00;;;;;;;-141.97;100.00;46248.84;5014766;28;20797;-87
2023/12/11 08:16:25;;;;;;;155.60;57.27;;;;;;;-141.97;100.00;46246.94;5013813;28;20623;-93
2023/12/11 08:18:51;;;;;;;126.33;49.40;;;;;;;-141.97;100.00;45976.03;5005787;28;20195;-91
2023/12/11 08:21:16;;;;;;;135.00;54.33;;;;;;;-141.97;100.00;46029.81;4993293;28;20180;-89
2023/12/11 08:23:46;;;;;;;128.83;50.53;;;;;;;-141.97;100.00;46204.66;4995674;28;20195;-89
2023/12/11 08:26:17;;;;;;;129.77;52.10;;;;;;;-141.97;100.00;46241.16;4993384;28;20591;-88
2023/12/11 08:29:01;;;;;;;135.50;54.27;;;;;;;-141.97;100.00;46615.84;4991409;28;20849;-87
2023/12/11 08:31:26;;;;;;;142.93;56.30;;;;;;;-141.97;100.00;46427.53;4992422;28;20430;-87
2023/12/11 08:33:51;;;;;;;190.73;87.90;;;;;;;-141.97;100.00;46346.84;4993029;28;20417;-86
2023/12/11 08:36:22;;;;;;;160.37;65.20;;;;;;;-141.97;100.00;46097.06;4991391;28;20556;-87
2023/12/11 08:38:48;;;;;;;146.63;56.63;;;;;;;-141.97;100.00;45870.38;4993117;28;20237;-89
2023/12/11 08:41:14;;;;;;;159.20;62.57;;;;;;;-141.97;100.00;45966.44;4993120;28;20163;-85
2023/12/11 08:43:39;;;;;;;148.97;60.47;;;;;;;-141.97;100.00;46446.75;5004057;28;20317;-85
2023/12/11 08:46:05;;;;;;;135.13;55.50;;;;;;;-141.97;100.00;46456.34;5013091;28;20565;-87
2023/12/11 08:48:30;;;;;;;163.20;64.77;;;;;;;-141.97;100.00;46460.19;5005320;28;20508;-87
2023/12/11 08:50:56;;;;;;;134.30;54.37;;;;;;;-141.97;100.00;46431.38;4996213;28;20189;-89
2023/12/11 08:53:21;;;;;;;138.87;55.00;;;;;;;-141.97;100.00;45908.78;5000749;28;20563;-86
2023/12/11 08:55:48;;;;;;;183.70;64.70;;;;;;;-141.97;100.00;45916.47;4991897;28;20203;-87
2023/12/11 08:58:14;;;;;;;124.53;48.47;;;;;;;-141.97;100.00;46600.47;4991828;28;20293;-87
2023/12/11 09:00:39;;;;;;;144.97;52.17;;;;;;;-141.97;100.00;45977.94;4991932;28;20190;-87
2023/12/11 09:03:05;;;;;;;175.33;61.83;;;;;;;-141.97;100.00;46285.34;4992023;28;20182;-89
2023/12/11 09:05:30;;;;;;;165.27;63.13;;;;;;;-141.97;100.00;46452.50;4990603;28;20620;-87
2023/12/11 09:07:56;;;;;;;456.47;151.00;;;;;;;-141.97;100.00;45891.50;4990381;28;20183;-91
2023/12/11 09:10:22;;;;;;;137.90;51.50;;;;;;;-141.97;100.00;46137.41;4991483;28;20305;-88
2023/12/11 09:12:47;;;;;;;144.93;54.60;;;;;;;-141.97;99.85;46373.72;4992646;28;20643;-88
2023/12/11 09:15:13;;;;;;;109.30;45.67;;;;;;;-141.97;100.00;46154.69;4993812;28;20155;-88
2023/12/11 09:17:39;;;;;;;128.57;52.63;;;;;;;-141.97;98.80;46162.38;4993663;28;20274;-87
2023/12/11 09:20:07;;;;;;;109.27;45.57;;;;;;;-141.97;99.78;46068.25;4994100;28;20171;-87
2023/12/11 09:22:32;;;;;;;99.30;41.23;;;;;;;-141.97;98.62;45885.72;4992168;28;20206;-88
2023/12/11 09:24:58;;;;;;;114.30;48.83;;;;;;;-141.97;98.11;46239.25;4992671;28;20187;-88
2023/12/11 09:27:23;;;;;;;120.57;50.73;;;;;;;-141.97;97.06;45916.47;4992372;28;20171;-88
2023/12/11 09:29:49;;;;;;;117.23;48.67;;;;;;;-141.97;96.50;46216.19;4990820;28;20656;-88
2023/12/11 09:32:18;;;;;;;108.80;45.03;;;;;;;-141.97;95.75;46419.84;4996476;28;20269;-88
2023/12/11 09:34:44;;;;;;;97.77;42.23;;;;;;;-141.97;95.16;46066.31;5016729;28;20155;-88
2023/12/11 11:05:28;;;;;;;84.17;38.53;;;;;;;-141.97;56.96;46054.81;6050112;23;20223;31
2023/12/11 11:08:28;;;;;;;94.73;40.47;;;;;;;-141.97;56.46;46074.00;4914928;29;20745;-87
2023/12/11 11:11:04;;;;;;;82.30;37.80;;;;;;;-141.97;57.40;46074.00;4915861;29;20202;-88
2023/12/11 11:14:09;;;;;;;88.37;38.70;;;;;;;-141.97;57.69;46058.63;4919830;29;20190;-88
2023/12/11 11:16:53;;;;;;;75.40;34.13;;;;;;;-141.97;57.31;46079.78;4893523;29;20171;-86
2023/12/11 11:19:19;;;;;;;68.90;32.10;;;;;;;-141.97;56.25;46039.44;4883292;29;20168;-82
2023/12/11 11:22:00;;;;;;;96.70;38.77;;;;;;;-141.97;56.25;45987.56;4905581;29;20178;-82
2023/12/11 11:24:27;;;;;;;102.83;43.27;;;;;;;-141.97;57.28;46041.34;4905773;29;20191;-81
2023/12/11 11:26:52;;;;;;;102.63;44.50;;;;;;;-141.97;57.94;46033.66;4901742;29;20230;-82
2023/12/11 11:29:40;;;;;;;107.90;45.77;;;;;;;-141.97;58.75;46077.84;4901440;29;20210;-82
2023/12/11 11:32:06;;;;;;;131.27;55.07;;;;;;;-141.97;59.28;46337.22;4904315;29;20178;-84
2023/12/11 11:34:41;;;;;;;113.37;46.40;;;;;;;-141.97;59.69;46064.41;4918099;29;20598;-82
2023/12/11 11:37:13;;;;;;;123.13;46.87;;;;;;;-141.97;59.86;46047.13;4919197;29;20162;-82
2023/12/11 11:39:55;;;;;;;117.90;46.50;;;;;;;-141.97;59.67;46077.84;4915136;29;20221;-82
2023/12/11 11:42:21;;;;;;;109.97;43.83;;;;;;;-141.97;60.66;46089.38;4902732;29;20200;-81
2023/12/11 11:44:46;;;;;;;111.40;44.50;;;;;;;-141.97;60.26;45868.44;4932783;29;20679;-81
2023/12/11 11:47:17;;;;;;;102.30;42.93;;;;;;;-141.97;60.16;46089.38;4920185;29;20663;-82
2023/12/11 11:49:43;;;;;;;95.37;41.00;;;;;;;-141.97;60.35;46250.78;4920190;29;20155;-82
2023/12/11 11:52:11;;;;;;;98.67;40.30;;;;;;;-141.97;60.32;45947.22;4921451;29;20175;-81
2023/12/11 11:54:38;;;;;;;88.93;36.53;;;;;;;-141.97;59.95;46074.00;4920623;29;20186;-82
2023/12/11 11:57:04;;;;;;;84.80;34.53;;;;;;;-141.97;60.73;46068.25;4921167;29;20182;-82
2023/12/11 11:59:29;;;;;;;98.43;36.87;;;;;;;-141.97;61.22;46085.53;4902435;29;20246;-82
2023/12/11 12:01:56;;;;;;;88.67;37.07;;;;;;;-141.97;61.71;45931.84;4900072;29;20175;-83
2023/12/11 12:04:35;;;;;;;88.03;38.40;;;;;;;-141.97;62.26;46081.69;4897938;29;20202;-83
2023/12/11 12:07:05;;;;;;;85.27;37.07;;;;;;;-141.97;62.03;46385.25;4913829;29;20333;-83
2023/12/11 12:09:32;;;;;;;79.63;34.00;;;;;;;-141.97;60.99;46062.47;4921382;29;20707;-84
2023/12/11 12:11:58;;;;;;;76.03;33.70;;;;;;;-141.97;61.28;46066.31;4919737;29;20531;-85
2023/12/11 12:14:25;;;;;;;84.53;36.37;;;;;;;-141.97;60.94;46079.78;4938586;29;20184;-83
2023/12/11 12:16:52;;;;;;;81.97;32.87;;;;;;;-141.97;61.23;46083.63;4927769;29;20178;-85
2023/12/11 12:19:28;;;;;;;73.33;32.67;;;;;;;-141.97;63.10;46027.91;4923713;29;20244;-84